CO59 weather

Hay Fever Farm Airport
Galeton, Colorado, United States

Public forecast

Using degrees Fahrenheit for public forecast. Weather courtesy of forecast.io.

Closest aviation weather report (METAR) to Hay Fever Farm Airport

Closest report is Greeley–Weld County Airport, 7.2 nm (13.4 km) SSW. Retrieved 2020/04/05 18:56 UTC (53 minutes ago):

KGXY 051856Z AUTO 12006KT 10SM CLR 16/M01 A2978 RMK AO2 SLP078 T01561006

Closest aviation forecast (TAF) to Hay Fever Farm Airport

Closest forecast is Cheyenne Regional Jerry Olson Field, 38.3 nm (71.0 km) NNW. Retrieved 2020/04/05 18:42 UTC (1 hour ago):

TAF KCYS 051740Z 0518/0618 20015G25KT P6SM BKN150 FM052100 21016G26KT P6SM SCT070 FM060200 27007KT P6SM BKN150 FM061600 22015G25KT P6SM SKC